Time;durP1;ratioP1;P1;durP2;ratioP2;P2;SDS_P1;SDS_P2;PMS_P1;PMS_P2;Temp;Humidity;BMP_temperature;BMP_pressure;BME280_temperature;BME280_humidity;BME280_pressure;Samples;Min_cycle;Max_cycle;Signal;HPM_P1;HPM_P2
2022/09/10 00:02:14;;;;;;;2.80;1.73;;;;;;;;;;5030984;28;20195;-51
2022/09/10 00:04:40;;;;;;;4.37;1.40;;;;;;;;;;5027704;28;20220;-51
2022/09/10 00:07:06;;;;;;;1.67;1.10;;;;;;;;;;5031256;28;20279;-49
2022/09/10 00:09:33;;;;;;;2.10;1.40;;;;;;;;;;5029445;28;20739;-50
2022/09/10 00:11:59;;;;;;;1.57;1.17;;;;;;;;;;5032652;28;20280;-50
2022/09/10 00:14:26;;;;;;;2.07;1.10;;;;;;;;;;5026081;28;20299;-50
2022/09/10 00:16:53;;;;;;;2.30;1.17;;;;;;;;;;5030888;28;20639;-49
2022/09/10 00:19:21;;;;;;;2.83;1.10;;;;;;;;;;5032853;28;21062;-50
2022/09/10 00:21:49;;;;;;;2.33;1.13;;;;;;;;;;5031188;28;20290;-51
2022/09/10 00:24:16;;;;;;;2.53;1.40;;;;;;;;;;5026237;28;20226;-53
2022/09/10 00:26:42;;;;;;;3.40;1.37;;;;;;;;;;5033005;28;20582;-52
2022/09/10 00:29:10;;;;;;;2.53;1.00;;;;;;;;;;5032036;28;20269;-52
2022/09/10 00:31:37;;;;;;;2.63;1.13;;;;;;;;;;5029976;28;21790;-50
2022/09/10 00:34:04;;;;;;;1.20;1.03;;;;;;;;;;5031640;28;20200;-53
2022/09/10 00:36:34;;;;;;;2.50;1.20;;;;;;;;;;5033307;28;20211;-50
2022/09/10 00:39:04;;;;;;;1.00;0.90;;;;;;;;;;5032006;28;20298;-49
2022/09/10 00:41:32;;;;;;;2.23;1.30;;;;;;;;;;5023403;28;20196;-51
2022/09/10 00:44:06;;;;;;;1.97;1.03;;;;;;;;;;5031524;28;20696;-50
2022/09/10 00:46:46;;;;;;;4.20;1.30;;;;;;;;;;5045088;28;20556;-50
2022/09/10 00:49:24;;;;;;;2.33;1.47;;;;;;;;;;5028690;28;20219;-50
2022/09/10 00:51:52;;;;;;;3.03;1.33;;;;;;;;;;5026401;28;20282;-50
2022/09/10 00:54:21;;;;;;;1.70;1.27;;;;;;;;;;5046900;28;20287;-55
2022/09/10 00:56:48;;;;;;;1.90;1.37;;;;;;;;;;5045740;28;20286;-51
2022/09/10 00:59:17;;;;;;;1.83;1.50;;;;;;;;;;5028727;28;20311;-54
2022/09/10 01:01:44;;;;;;;4.53;1.30;;;;;;;;;;5029774;28;20238;-49
2022/09/10 01:04:10;;;;;;;2.77;1.50;;;;;;;;;;5042000;28;20223;-49
2022/09/10 01:06:39;;;;;;;2.97;1.40;;;;;;;;;;5021121;28;20203;-52
2022/09/10 01:09:05;;;;;;;3.07;1.50;;;;;;;;;;5028694;28;20329;-54
2022/09/10 01:11:51;;;;;;;3.27;1.47;;;;;;;;;;5030515;28;20242;-54
2022/09/10 01:17:20;;;;;;;4.30;1.47;;;;;;;;;;5509786;23;20711;-53
2022/09/10 01:20:24;;;;;;;2.13;1.30;;;;;;;;;;4985462;28;20284;-52
2022/09/10 01:23:24;;;;;;;2.23;1.13;;;;;;;;;;4988206;28;20192;-52
2022/09/10 01:26:06;;;;;;;3.03;1.23;;;;;;;;;;4986105;28;20227;-52
2022/09/10 01:28:39;;;;;;;1.60;1.13;;;;;;;;;;4972317;28;20311;-52
2022/09/10 01:31:21;;;;;;;4.90;1.40;;;;;;;;;;4969874;28;20220;-52
2022/09/10 01:34:00;;;;;;;3.63;1.30;;;;;;;;;;4971637;28;20193;-53
2022/09/10 01:36:30;;;;;;;2.30;1.30;;;;;;;;;;4968271;28;20307;-53
2022/09/10 01:38:56;;;;;;;3.20;1.20;;;;;;;;;;4970774;28;20285;-53
2022/09/10 01:41:24;;;;;;;1.47;1.30;;;;;;;;;;4990293;28;20654;-51
2022/09/10 01:43:51;;;;;;;2.07;1.20;;;;;;;;;;4992758;28;20677;-55
2022/09/10 01:46:20;;;;;;;2.33;1.17;;;;;;;;;;4981405;28;20312;-54
2022/09/10 01:49:14;;;;;;;1.57;1.20;;;;;;;;;;4987783;28;20225;-50
2022/09/10 01:52:11;;;;;;;2.03;0.90;;;;;;;;;;4984005;28;20232;-53
2022/09/10 01:54:57;;;;;;;2.17;1.23;;;;;;;;;;4982360;28;20279;-54
2022/09/10 01:57:37;;;;;;;1.67;1.10;;;;;;;;;;4966449;28;20300;-52
2022/09/10 02:00:08;;;;;;;1.10;0.90;;;;;;;;;;4973063;28;20284;-52
2022/09/10 02:03:04;;;;;;;1.63;0.83;;;;;;;;;;4972262;28;20252;-55
2022/09/10 02:05:34;;;;;;;2.13;1.23;;;;;;;;;;4983841;28;20309;-55
2022/09/10 02:08:02;;;;;;;3.30;1.10;;;;;;;;;;4972267;28;20251;-52
2022/09/10 02:10:28;;;;;;;1.70;1.07;;;;;;;;;;4988950;28;20205;-52
2022/09/10 02:12:55;;;;;;;2.00;1.00;;;;;;;;;;4988632;28;20720;-54
2022/09/10 02:15:23;;;;;;;1.60;1.00;;;;;;;;;;4985254;28;20287;-52
2022/09/10 02:17:52;;;;;;;2.40;1.27;;;;;;;;;;4976800;28;20229;-52
2022/09/10 02:20:20;;;;;;;3.03;1.00;;;;;;;;;;4973351;28;20771;-49
2022/09/10 02:22:50;;;;;;;4.80;1.53;;;;;;;;;;4970959;28;20289;-51
2022/09/10 02:25:17;;;;;;;3.17;1.70;;;;;;;;;;4985968;28;20230;-53
2022/09/10 02:27:43;;;;;;;4.33;1.80;;;;;;;;;;4988181;28;20278;-50
2022/09/10 02:30:10;;;;;;;1.93;1.17;;;;;;;;;;4972699;28;20229;-53
2022/09/10 02:32:36;;;;;;;9.83;1.53;;;;;;;;;;4988960;28;20228;-50
2022/09/10 02:35:03;;;;;;;3.42;1.70;;;;;;;;;;4989808;28;20224;-50
2022/09/10 02:37:30;;;;;;;4.77;1.60;;;;;;;;;;4983569;28;20720;-55
2022/09/10 02:39:56;;;;;;;2.73;1.50;;;;;;;;;;4990235;28;20287;-53
2022/09/10 02:42:22;;;;;;;4.23;1.60;;;;;;;;;;4988980;28;20263;-50
2022/09/10 02:44:49;;;;;;;5.80;1.50;;;;;;;;;;4990028;28;20223;-53
2022/09/10 02:47:15;;;;;;;2.93;1.90;;;;;;;;;;4988435;28;20213;-51
2022/09/10 02:49:41;;;;;;;5.20;2.00;;;;;;;;;;4972526;28;20350;-50
2022/09/10 02:52:08;;;;;;;5.40;2.30;;;;;;;;;;4987655;28;20609;-50
2022/09/10 02:54:34;;;;;;;4.97;2.20;;;;;;;;;;4989660;28;20283;-57
2022/09/10 02:57:01;;;;;;;2.93;1.97;;;;;;;;;;4987798;28;20324;-54
2022/09/10 02:59:28;;;;;;;4.47;1.60;;;;;;;;;;4984538;28;20293;-53
2022/09/10 03:01:55;;;;;;;2.10;1.60;;;;;;;;;;4990340;28;20224;-53
2022/09/10 03:04:21;;;;;;;3.80;1.87;;;;;;;;;;4986951;28;20212;-51
2022/09/10 03:06:48;;;;;;;3.23;1.70;;;;;;;;;;4983226;28;20704;-54
2022/09/10 03:09:15;;;;;;;3.63;1.50;;;;;;;;;;4987306;28;20201;-53
2022/09/10 03:11:42;;;;;;;3.10;1.60;;;;;;;;;;4971847;28;20248;-52
2022/09/10 03:14:09;;;;;;;2.23;1.20;;;;;;;;;;4989119;28;20193;-53
2022/09/10 03:16:35;;;;;;;4.63;1.50;;;;;;;;;;4982984;28;20208;-56
2022/09/10 03:19:02;;;;;;;3.73;1.70;;;;;;;;;;4989078;28;20624;-53
2022/09/10 03:21:28;;;;;;;2.93;1.50;;;;;;;;;;4990791;28;20296;-52
2022/09/10 03:23:55;;;;;;;3.90;1.63;;;;;;;;;;4986180;28;20288;-51
2022/09/10 03:26:24;;;;;;;3.70;1.50;;;;;;;;;;4977633;28;20244;-53
2022/09/10 03:28:51;;;;;;;1.93;1.40;;;;;;;;;;4980675;28;20199;-51
2022/09/10 03:31:17;;;;;;;2.67;1.80;;;;;;;;;;4984108;28;20236;-49
2022/09/10 03:33:45;;;;;;;3.37;1.50;;;;;;;;;;4985545;28;20224;-50
2022/09/10 03:36:14;;;;;;;4.37;2.10;;;;;;;;;;4985032;28;20300;-49
2022/09/10 03:38:40;;;;;;;1.97;1.40;;;;;;;;;;4986374;28;20292;-51
2022/09/10 03:41:07;;;;;;;3.60;1.90;;;;;;;;;;4988004;28;20289;-50
2022/09/10 03:43:33;;;;;;;2.73;1.60;;;;;;;;;;4987333;28;20212;-51
2022/09/10 03:46:00;;;;;;;2.23;1.70;;;;;;;;;;4984074;28;20303;-50
2022/09/10 03:48:26;;;;;;;4.23;1.60;;;;;;;;;;4987442;28;20200;-51
2022/09/10 03:50:53;;;;;;;2.20;1.70;;;;;;;;;;4989980;28;20276;-49
2022/09/10 03:53:20;;;;;;;3.23;1.90;;;;;;;;;;4982274;28;20284;-51
2022/09/10 03:55:47;;;;;;;4.27;1.97;;;;;;;;;;4983267;28;20204;-48
2022/09/10 03:58:15;;;;;;;2.70;1.70;;;;;;;;;;4990569;28;20221;-50
2022/09/10 04:00:41;;;;;;;2.60;1.73;;;;;;;;;;4991752;28;20284;-49
2022/09/10 04:03:09;;;;;;;2.70;2.07;;;;;;;;;;4990415;28;20199;-51
2022/09/10 04:05:39;;;;;;;3.13;1.93;;;;;;;;;;4990564;28;20300;-54
2022/09/10 04:08:06;;;;;;;3.53;2.20;;;;;;;;;;4987448;28;20707;-48
2022/09/10 04:10:32;;;;;;;4.17;2.00;;;;;;;;;;4991579;28;20250;-49
2022/09/10 04:12:59;;;;;;;3.93;2.17;;;;;;;;;;4991128;28;20221;-52
2022/09/10 04:15:25;;;;;;;3.70;2.00;;;;;;;;;;4967281;28;20285;-49
2022/09/10 04:17:51;;;;;;;2.10;1.87;;;;;;;;;;4983580;28;20256;-49
2022/09/10 04:20:19;;;;;;;3.13;1.90;;;;;;;;;;4989243;28;20283;-49
2022/09/10 04:22:46;;;;;;;5.00;2.13;;;;;;;;;;4987138;28;20287;-49
2022/09/10 04:25:14;;;;;;;5.87;2.20;;;;;;;;;;4988465;28;20304;-49
2022/09/10 04:27:41;;;;;;;3.63;2.10;;;;;;;;;;4988584;28;20309;-55
2022/09/10 04:30:08;;;;;;;3.33;2.10;;;;;;;;;;4986084;28;20198;-52
2022/09/10 04:32:35;;;;;;;3.20;2.17;;;;;;;;;;4991060;28;20283;-47
2022/09/10 04:35:02;;;;;;;3.33;2.27;;;;;;;;;;4991418;28;20280;-50
2022/09/10 04:37:30;;;;;;;2.97;2.00;;;;;;;;;;4988564;28;20307;-50
2022/09/10 04:39:56;;;;;;;2.57;2.27;;;;;;;;;;4986073;28;20299;-51
2022/09/10 04:42:23;;;;;;;3.77;2.40;;;;;;;;;;4990489;28;20204;-49
2022/09/10 04:44:49;;;;;;;4.63;2.10;;;;;;;;;;4991238;28;20288;-48
2022/09/10 04:47:16;;;;;;;3.33;2.20;;;;;;;;;;4989132;28;20308;-49
2022/09/10 04:49:42;;;;;;;5.60;2.57;;;;;;;;;;4984507;28;20283;-49
2022/09/10 04:52:10;;;;;;;4.60;2.50;;;;;;;;;;4990801;28;20284;-49
2022/09/10 04:54:37;;;;;;;3.97;2.20;;;;;;;;;;4990019;28;20199;-49
2022/09/10 04:57:06;;;;;;;3.70;2.20;;;;;;;;;;4988737;28;20312;-49
2022/09/10 04:59:33;;;;;;;2.97;2.17;;;;;;;;;;4984476;28;20288;-51
2022/09/10 05:02:00;;;;;;;4.73;2.83;;;;;;;;;;4990285;28;20291;-52
2022/09/10 05:04:27;;;;;;;3.53;2.33;;;;;;;;;;4986551;28;20216;-51
2022/09/10 05:06:53;;;;;;;6.10;2.37;;;;;;;;;;4989897;28;20227;-49
2022/09/10 05:09:20;;;;;;;3.90;2.20;;;;;;;;;;4992030;28;20288;-49
2022/09/10 05:11:46;;;;;;;3.93;2.30;;;;;;;;;;4987260;28;20244;-51
2022/09/10 05:14:13;;;;;;;2.97;2.37;;;;;;;;;;4989737;28;20291;-50
2022/09/10 05:16:39;;;;;;;3.50;2.57;;;;;;;;;;4983303;28;20299;-52
2022/09/10 05:19:06;;;;;;;3.50;2.60;;;;;;;;;;4984824;28;20672;-52
2022/09/10 05:21:32;;;;;;;3.13;2.20;;;;;;;;;;4989781;28;20649;-52
2022/09/10 05:23:58;;;;;;;4.43;2.47;;;;;;;;;;4985928;28;20288;-50
2022/09/10 05:26:26;;;;;;;4.90;2.40;;;;;;;;;;4989177;28;20228;-53
2022/09/10 05:28:53;;;;;;;2.67;2.13;;;;;;;;;;4983362;28;20240;-52
2022/09/10 05:31:20;;;;;;;4.13;2.30;;;;;;;;;;4980682;28;20288;-50
2022/09/10 05:33:46;;;;;;;2.87;2.40;;;;;;;;;;4967139;28;20553;-52
2022/09/10 05:36:13;;;;;;;4.20;2.33;;;;;;;;;;4985415;28;20768;-50
2022/09/10 05:38:40;;;;;;;3.73;2.30;;;;;;;;;;4967835;28;20198;-51
2022/09/10 05:41:10;;;;;;;6.03;3.00;;;;;;;;;;4986725;28;20201;-54
2022/09/10 05:43:36;;;;;;;5.93;2.33;;;;;;;;;;4989438;28;20689;-53
2022/09/10 05:46:03;;;;;;;4.70;2.63;;;;;;;;;;4985631;28;20587;-50
2022/09/10 05:48:30;;;;;;;7.40;2.57;;;;;;;;;;4986736;28;20216;-53
2022/09/10 05:50:56;;;;;;;3.83;2.40;;;;;;;;;;4989383;28;20661;-52
2022/09/10 05:53:23;;;;;;;6.83;2.80;;;;;;;;;;4990082;28;20292;-53
2022/09/10 05:55:49;;;;;;;4.83;2.60;;;;;;;;;;4990383;28;20280;-52
2022/09/10 05:58:15;;;;;;;3.97;2.50;;;;;;;;;;4984629;28;20208;-54
2022/09/10 06:00:42;;;;;;;4.97;2.80;;;;;;;;;;4989409;28;20208;-53
2022/09/10 06:03:09;;;;;;;2.57;2.37;;;;;;;;;;4986875;28;20247;-53
2022/09/10 06:05:35;;;;;;;6.33;2.50;;;;;;;;;;4988467;28;20217;-55
2022/09/10 06:08:02;;;;;;;3.63;2.60;;;;;;;;;;4990181;28;20222;-49
2022/09/10 06:10:34;;;;;;;3.73;2.23;;;;;;;;;;4989533;28;20207;-49
2022/09/10 06:13:00;;;;;;;3.00;2.30;;;;;;;;;;4975281;28;20292;-49
2022/09/10 06:15:26;;;;;;;3.90;2.10;;;;;;;;;;4988050;28;20220;-52
2022/09/10 06:17:55;;;;;;;2.50;1.97;;;;;;;;;;4981912;28;20660;-55
2022/09/10 06:20:22;;;;;;;3.83;2.43;;;;;;;;;;4986692;28;20236;-49
2022/09/10 06:22:48;;;;;;;2.47;2.00;;;;;;;;;;4968722;28;20658;-49
2022/09/10 06:25:15;;;;;;;3.83;2.10;;;;;;;;;;4983768;28;20283;-50
2022/09/10 06:27:41;;;;;;;6.53;2.10;;;;;;;;;;4985403;28;20312;-54
2022/09/10 06:30:07;;;;;;;2.87;1.97;;;;;;;;;;4985196;28;20340;-51
2022/09/10 06:32:34;;;;;;;2.97;2.03;;;;;;;;;;4986048;28;20211;-53
2022/09/10 06:35:00;;;;;;;3.27;2.20;;;;;;;;;;4983025;28;20283;-50
2022/09/10 06:37:26;;;;;;;2.87;2.17;;;;;;;;;;4989998;28;20245;-50
2022/09/10 06:39:53;;;;;;;2.80;1.90;;;;;;;;;;4989205;28;20288;-54
2022/09/10 06:42:19;;;;;;;3.97;2.20;;;;;;;;;;4979847;28;20644;-50
2022/09/10 06:44:45;;;;;;;3.77;2.10;;;;;;;;;;4967677;28;20284;-54
2022/09/10 06:47:12;;;;;;;3.57;2.80;;;;;;;;;;4985498;28;20664;-52
2022/09/10 06:49:58;;;;;;;4.77;2.27;;;;;;;;;;4987377;28;20579;-54
2022/09/10 06:52:27;;;;;;;4.87;2.43;;;;;;;;;;4988552;28;20723;-51
2022/09/10 06:54:54;;;;;;;4.07;2.30;;;;;;;;;;4989647;28;20283;-50
2022/09/10 06:57:24;;;;;;;2.30;1.87;;;;;;;;;;4979863;28;20303;-50
2022/09/10 06:59:50;;;;;;;2.87;2.43;;;;;;;;;;4983058;28;20739;-51
2022/09/10 07:02:16;;;;;;;4.07;2.43;;;;;;;;;;4980798;28;20291;-49
2022/09/10 07:04:43;;;;;;;3.47;2.40;;;;;;;;;;4987572;28;20621;-51
2022/09/10 07:07:10;;;;;;;2.43;1.90;;;;;;;;;;4984784;28;20404;-52
2022/09/10 07:09:36;;;;;;;2.60;2.10;;;;;;;;;;4983641;28;20235;-50
2022/09/10 07:12:03;;;;;;;3.23;2.10;;;;;;;;;;4987150;28;20239;-53
2022/09/10 07:14:31;;;;;;;3.83;2.30;;;;;;;;;;4983808;28;20237;-50
2022/09/10 07:16:57;;;;;;;4.30;2.20;;;;;;;;;;4985209;28;20213;-51
2022/09/10 07:19:23;;;;;;;3.83;1.77;;;;;;;;;;4989497;28;20240;-52
2022/09/10 07:21:50;;;;;;;2.60;1.73;;;;;;;;;;4989998;28;20261;-50
2022/09/10 07:24:18;;;;;;;3.03;1.87;;;;;;;;;;4989764;28;20319;-52
2022/09/10 07:26:45;;;;;;;3.33;1.88;;;;;;;;;;4986986;28;20299;-53
2022/09/10 07:29:12;;;;;;;5.03;2.13;;;;;;;;;;4993069;28;20300;-49
2022/09/10 07:31:40;;;;;;;3.00;2.20;;;;;;;;;;4992613;28;20216;-53
2022/09/10 07:34:07;;;;;;;4.20;1.90;;;;;;;;;;4990617;28;20201;-50
2022/09/10 07:36:34;;;;;;;3.57;1.93;;;;;;;;;;4991667;28;20226;-52
2022/09/10 07:39:00;;;;;;;2.10;1.70;;;;;;;;;;4989020;28;20284;-49
2022/09/10 07:41:28;;;;;;;2.88;1.85;;;;;;;;;;4989715;28;20285;-51
2022/09/10 07:43:55;;;;;;;2.97;1.80;;;;;;;;;;4984608;28;20202;-54
2022/09/10 07:46:23;;;;;;;1.73;1.30;;;;;;;;;;4990195;28;20243;-51
2022/09/10 07:48:58;;;;;;;1.63;1.35;;;;;;;;;;4992329;28;20284;-53
2022/09/10 07:51:26;;;;;;;4.53;1.67;;;;;;;;;;4990700;28;20622;-51
2022/09/10 07:53:54;;;;;;;2.35;1.52;;;;;;;;;;4992361;28;20288;-52
2022/09/10 07:56:22;;;;;;;1.75;1.65;;;;;;;;;;4989941;28;20213;-51
2022/09/10 07:58:49;;;;;;;3.25;1.40;;;;;;;;;;4992327;28;20251;-53
2022/09/10 08:01:16;;;;;;;1.65;1.38;;;;;;;;;;4973864;28;20731;-52
2022/09/10 08:03:45;;;;;;;3.70;1.40;;;;;;;;;;4989629;28;20197;-56
2022/09/10 08:06:11;;;;;;;2.10;1.25;;;;;;;;;;4981744;28;20267;-53
2022/09/10 08:08:38;;;;;;;2.42;1.65;;;;;;;;;;4987852;28;20308;-52
2022/09/10 08:11:15;;;;;;;1.50;1.30;;;;;;;;;;4969399;28;20201;-56
2022/09/10 08:13:46;;;;;;;2.38;1.50;;;;;;;;;;4991946;28;20287;-53
2022/09/10 08:16:15;;;;;;;4.15;1.45;;;;;;;;;;4992650;28;20303;-53
2022/09/10 08:18:42;;;;;;;2.40;1.38;;;;;;;;;;4968159;28;20664;-53
2022/09/10 08:21:09;;;;;;;1.50;1.20;;;;;;;;;;4981228;28;20255;-56
2022/09/10 08:23:36;;;;;;;2.08;1.30;;;;;;;;;;4991642;28;20292;-50
2022/09/10 08:26:04;;;;;;;1.63;1.30;;;;;;;;;;4967057;28;20292;-51
2022/09/10 08:28:30;;;;;;;1.42;1.20;;;;;;;;;;4987794;28;20736;-50
2022/09/10 08:31:06;;;;;;;3.72;1.00;;;;;;;;;;4989907;28;20213;-50
2022/09/10 08:33:38;;;;;;;1.20;1.10;;;;;;;;;;4991725;28;20746;-53
2022/09/10 08:36:06;;;;;;;6.63;1.40;;;;;;;;;;4987706;28;20284;-51
2022/09/10 08:38:38;;;;;;;2.53;1.38;;;;;;;;;;4987340;28;20211;-51
2022/09/10 08:41:13;;;;;;;2.83;1.38;;;;;;;;;;4980204;28;20233;-51
2022/09/10 08:44:01;;;;;;;2.60;1.35;;;;;;;;;;4970802;28;20280;-56
2022/09/10 08:46:32;;;;;;;2.13;1.10;;;;;;;;;;4970378;28;20316;-49
2022/09/10 08:49:37;;;;;;;4.72;1.20;;;;;;;;;;4974015;28;20579;-49
2022/09/10 08:52:13;;;;;;;3.00;1.45;;;;;;;;;;4980246;28;20193;-51
2022/09/10 08:54:46;;;;;;;3.28;1.10;;;;;;;;;;4974116;28;20283;-49
2022/09/10 08:57:23;;;;;;;1.58;1.20;;;;;;;;;;4990372;28;20296;-51
2022/09/10 08:59:51;;;;;;;2.92;1.30;;;;;;;;;;4972465;28;20279;-49
2022/09/10 09:02:19;;;;;;;1.88;1.10;;;;;;;;;;4989482;28;20284;-52
2022/09/10 09:05:14;;;;;;;2.28;1.10;;;;;;;;;;4987067;28;20201;-53
2022/09/10 09:07:41;;;;;;;2.63;1.42;;;;;;;;;;4988708;28;20315;-53
2022/09/10 09:10:23;;;;;;;3.08;1.23;;;;;;;;;;4984439;28;20695;-50
2022/09/10 09:13:07;;;;;;;2.33;1.50;;;;;;;;;;4987418;28;20284;-49
2022/09/10 09:15:42;;;;;;;3.67;1.50;;;;;;;;;;4990579;28;20295;-52
2022/09/10 09:18:26;;;;;;;3.03;1.30;;;;;;;;;;4989190;28;20584;-52
2022/09/10 09:20:59;;;;;;;4.10;1.60;;;;;;;;;;4987407;28;20288;-49
2022/09/10 09:23:34;;;;;;;5.25;1.70;;;;;;;;;;4973354;28;20295;-52
2022/09/10 09:26:11;;;;;;;6.15;2.00;;;;;;;;;;4968741;28;20287;-52
2022/09/10 09:29:06;;;;;;;5.15;1.75;;;;;;;;;;4990101;28;20288;-49
2022/09/10 09:31:36;;;;;;;4.80;1.50;;;;;;;;;;4969514;28;20584;-53
2022/09/10 09:34:09;;;;;;;4.97;1.58;;;;;;;;;;4980467;28;20205;-53
2022/09/10 09:36:44;;;;;;;5.18;1.30;;;;;;;;;;4972710;28;20217;-54
2022/09/10 09:39:22;;;;;;;4.07;1.40;;;;;;;;;;4973093;28;20288;-51
2022/09/10 09:42:01;;;;;;;4.32;1.75;;;;;;;;;;4986443;28;20240;-52
2022/09/10 09:44:33;;;;;;;2.83;1.55;;;;;;;;;;4967382;28;20283;-53
2022/09/10 09:46:59;;;;;;;3.03;1.23;;;;;;;;;;4970464;28;20226;-53
2022/09/10 09:49:26;;;;;;;5.18;1.40;;;;;;;;;;4970505;28;20207;-50
2022/09/10 09:51:52;;;;;;;4.88;1.48;;;;;;;;;;4989761;28;20280;-53
2022/09/10 09:54:27;;;;;;;4.15;1.27;;;;;;;;;;4984724;28;20648;-50
2022/09/10 09:57:18;;;;;;;3.92;1.27;;;;;;;;;;4990757;28;20323;-56
2022/09/10 09:59:45;;;;;;;3.72;1.30;;;;;;;;;;4986549;28;20203;-51
2022/09/10 10:02:20;;;;;;;3.00;1.30;;;;;;;;;;4986167;28;20284;-49
2022/09/10 10:04:55;;;;;;;6.53;1.35;;;;;;;;;;4980839;28;20196;-53
2022/09/10 10:07:26;;;;;;;3.15;1.30;;;;;;;;;;4986222;28;20242;-49
2022/09/10 10:09:53;;;;;;;4.55;1.33;;;;;;;;;;4972520;28;20276;-50
2022/09/10 10:12:20;;;;;;;3.85;1.40;;;;;;;;;;4973369;28;20289;-50
2022/09/10 10:14:46;;;;;;;7.30;2.30;;;;;;;;;;4971739;28;20275;-53
2022/09/10 10:17:34;;;;;;;2.92;1.35;;;;;;;;;;4981964;28;20317;-52
2022/09/10 10:20:08;;;;;;;5.78;1.25;;;;;;;;;;4970988;28;20275;-51
2022/09/10 10:22:36;;;;;;;3.25;1.42;;;;;;;;;;4987917;28;20215;-53
2022/09/10 10:25:25;;;;;;;3.13;1.30;;;;;;;;;;4976308;28;20729;-50
2022/09/10 10:27:53;;;;;;;2.58;1.00;;;;;;;;;;4968462;28;20320;-56
2022/09/10 10:30:23;;;;;;;1.77;1.00;;;;;;;;;;4987472;28;20284;-55
2022/09/10 10:32:56;;;;;;;3.45;0.90;;;;;;;;;;4989603;28;20225;-53
2022/09/10 10:35:41;;;;;;;4.15;1.20;;;;;;;;;;4970971;28;20264;-52
2022/09/10 10:39:03;;;;;;;2.00;1.15;;;;;;;;;;4964440;28;20295;-52
2022/09/10 10:42:03;;;;;;;1.33;0.80;;;;;;;;;;4939045;28;20287;-53
2022/09/10 10:44:54;;;;;;;1.75;1.00;;;;;;;;;;4989714;28;20204;-52
2022/09/10 10:47:26;;;;;;;1.30;0.80;;;;;;;;;;4980070;28;20311;-53
2022/09/10 10:50:14;;;;;;;1.83;0.90;;;;;;;;;;4987350;28;20276;-53
2022/09/10 10:53:05;;;;;;;2.10;0.82;;;;;;;;;;4993523;28;20284;-52
2022/09/10 10:55:39;;;;;;;2.00;0.68;;;;;;;;;;4982861;28;20304;-52
2022/09/10 10:58:21;;;;;;;1.38;0.70;;;;;;;;;;4976579;28;20263;-54
2022/09/10 11:00:56;;;;;;;2.22;0.60;;;;;;;;;;4982634;28;20388;-55
2022/09/10 11:03:43;;;;;;;0.90;0.70;;;;;;;;;;4975223;28;20283;-54
2022/09/10 11:06:15;;;;;;;3.25;0.50;;;;;;;;;;4961917;28;20308;-54
2022/09/10 11:08:49;;;;;;;0.95;0.63;;;;;;;;;;4983970;28;20232;-50
2022/09/10 11:11:25;;;;;;;1.15;0.40;;;;;;;;;;4964256;28;20684;-53
2022/09/10 11:13:59;;;;;;;1.00;0.60;;;;;;;;;;4974477;28;20743;-51
2022/09/10 11:16:34;;;;;;;0.80;0.50;;;;;;;;;;4965144;28;20664;-51
2022/09/10 11:19:24;;;;;;;0.77;0.50;;;;;;;;;;4973594;28;20259;-50
2022/09/10 11:21:54;;;;;;;1.45;0.45;;;;;;;;;;4969039;28;20603;-54
2022/09/10 11:24:25;;;;;;;1.95;0.57;;;;;;;;;;4968027;28;20279;-51
2022/09/10 11:27:21;;;;;;;0.70;0.60;;;;;;;;;;4990677;28;20296;-48
2022/09/10 11:29:56;;;;;;;1.58;0.77;;;;;;;;;;4971055;28;20288;-50
2022/09/10 11:32:38;;;;;;;0.55;0.55;;;;;;;;;;4993623;28;20468;-54
2022/09/10 11:35:54;;;;;;;1.05;0.70;;;;;;;;;;4986239;28;20235;-54
2022/09/10 11:38:47;;;;;;;1.33;0.60;;;;;;;;;;4968992;28;20295;-49
2022/09/10 11:41:20;;;;;;;1.15;0.70;;;;;;;;;;4968598;28;20279;-51
2022/09/10 11:44:01;;;;;;;1.95;0.70;;;;;;;;;;4987004;28;20276;-55
2022/09/10 11:46:35;;;;;;;1.23;0.70;;;;;;;;;;4991701;28;20259;-53
2022/09/10 11:49:33;;;;;;;1.33;0.80;;;;;;;;;;4968526;28;20223;-50
2022/09/10 11:52:00;;;;;;;0.75;0.60;;;;;;;;;;4982495;28;20655;-49
2022/09/10 11:54:33;;;;;;;0.88;0.57;;;;;;;;;;4987293;28;20291;-51
2022/09/10 11:57:15;;;;;;;1.52;0.60;;;;;;;;;;4984755;28;20304;-52
2022/09/10 12:00:05;;;;;;;1.05;0.70;;;;;;;;;;4967763;28;20285;-49
2022/09/10 12:02:58;;;;;;;0.77;0.55;;;;;;;;;;4986302;28;20251;-53
2022/09/10 12:05:30;;;;;;;1.30;0.70;;;;;;;;;;4986533;28;20648;-52
2022/09/10 12:08:18;;;;;;;1.58;0.80;;;;;;;;;;4981688;28;20311;-51
2022/09/10 12:11:08;;;;;;;1.80;0.60;;;;;;;;;;4968456;28;20280;-53
2022/09/10 12:13:40;;;;;;;0.95;0.60;;;;;;;;;;4972948;28;20269;-52
2022/09/10 12:16:21;;;;;;;0.82;0.60;;;;;;;;;;4984487;28;20260;-55
2022/09/10 12:18:50;;;;;;;0.77;0.60;;;;;;;;;;4969399;28;20200;-52
2022/09/10 12:21:39;;;;;;;2.13;0.80;;;;;;;;;;4969068;28;20288;-55
2022/09/10 12:24:23;;;;;;;1.73;0.70;;;;;;;;;;4975922;28;20279;-52
2022/09/10 12:26:49;;;;;;;0.80;0.50;;;;;;;;;;4967934;28;20308;-56
2022/09/10 12:29:28;;;;;;;1.38;0.80;;;;;;;;;;4989081;28;20288;-54
2022/09/10 12:32:07;;;;;;;3.00;0.60;;;;;;;;;;4967633;28;20289;-51
2022/09/10 12:34:35;;;;;;;2.58;0.90;;;;;;;;;;4985115;28;20209;-55
2022/09/10 12:37:01;;;;;;;1.15;0.60;;;;;;;;;;4986209;28;20323;-55
2022/09/10 12:39:28;;;;;;;0.73;0.70;;;;;;;;;;4985966;28;20288;-52
2022/09/10 12:42:06;;;;;;;1.05;0.65;;;;;;;;;;4992181;28;20197;-55
2022/09/10 12:44:35;;;;;;;0.63;0.60;;;;;;;;;;4984686;28;20297;-54
2022/09/10 12:47:13;;;;;;;0.70;0.70;;;;;;;;;;4983022;28;20217;-52
2022/09/10 12:49:56;;;;;;;1.75;0.70;;;;;;;;;;4990687;28;20291;-53
2022/09/10 12:52:50;;;;;;;0.95;0.57;;;;;;;;;;4989842;28;20201;-54
2022/09/10 12:55:39;;;;;;;3.25;0.70;;;;;;;;;;4990684;28;20283;-54
2022/09/10 12:58:24;;;;;;;1.00;0.70;;;;;;;;;;4973594;28;20300;-55
2022/09/10 13:00:53;;;;;;;0.80;0.70;;;;;;;;;;4989558;28;20279;-56
2022/09/10 13:03:21;;;;;;;0.50;0.50;;;;;;;;;;4983814;28;20201;-52
2022/09/10 13:05:53;;;;;;;1.27;0.68;;;;;;;;;;4967802;28;20291;-54
2022/09/10 13:08:26;;;;;;;0.52;0.52;;;;;;;;;;4972160;28;20304;-54
2022/09/10 13:11:00;;;;;;;0.55;0.55;;;;;;;;;;4971125;28;20192;-52
2022/09/10 13:13:47;;;;;;;0.50;0.50;;;;;;;;;;4987098;28;20292;-53
2022/09/10 13:16:34;;;;;;;1.20;0.70;;;;;;;;;;4987852;28;20477;-55
2022/09/10 13:19:12;;;;;;;1.13;0.60;;;;;;;;;;4981612;28;20299;-53
2022/09/10 13:21:38;;;;;;;0.80;0.60;;;;;;;;;;4986504;28;20287;-53
2022/09/10 13:24:34;;;;;;;1.25;0.52;;;;;;;;;;4986124;28;20293;-53
2022/09/10 13:27:18;;;;;;;0.75;0.60;;;;;;;;;;4980136;28;20244;-51
2022/09/10 13:29:46;;;;;;;0.65;0.60;;;;;;;;;;4986375;28;20287;-53
2022/09/10 13:32:22;;;;;;;1.13;0.50;;;;;;;;;;4960405;28;20198;-55
2022/09/10 13:35:33;;;;;;;2.25;0.60;;;;;;;;;;4973440;28;20304;-55
2022/09/10 13:38:03;;;;;;;1.25;0.80;;;;;;;;;;4969411;28;20299;-54
2022/09/10 13:40:55;;;;;;;0.80;0.70;;;;;;;;;;4965430;28;20212;-50
2022/09/10 13:43:45;;;;;;;0.60;0.60;;;;;;;;;;4985212;28;20697;-51
2022/09/10 13:46:19;;;;;;;0.70;0.70;;;;;;;;;;4972537;28;20299;-55
2022/09/10 13:48:53;;;;;;;1.67;0.65;;;;;;;;;;4960185;28;20236;-54
2022/09/10 13:51:29;;;;;;;1.33;0.75;;;;;;;;;;4970628;28;20728;-50
2022/09/10 13:54:06;;;;;;;0.73;0.73;;;;;;;;;;4968300;28;20296;-53
2022/09/10 13:56:33;;;;;;;2.80;0.80;;;;;;;;;;4959595;28;20252;-51
2022/09/10 13:59:02;;;;;;;1.67;0.88;;;;;;;;;;4987308;28;20359;-51
2022/09/10 14:01:48;;;;;;;2.17;0.90;;;;;;;;;;4971069;28;20231;-54
2022/09/10 14:04:21;;;;;;;2.17;0.70;;;;;;;;;;4988670;28;20546;-49
2022/09/10 14:06:47;;;;;;;1.10;0.68;;;;;;;;;;4978744;28;20383;-50
2022/09/10 14:09:14;;;;;;;0.88;0.80;;;;;;;;;;4988272;28;20574;-51
2022/09/10 14:11:41;;;;;;;2.08;0.65;;;;;;;;;;4989866;28;20276;-53
2022/09/10 14:14:13;;;;;;;0.88;0.70;;;;;;;;;;4988099;28;20752;-50
2022/09/10 14:16:39;;;;;;;1.55;0.90;;;;;;;;;;4972108;28;20304;-52
2022/09/10 14:19:14;;;;;;;2.45;0.95;;;;;;;;;;4989909;28;20284;-55
2022/09/10 14:21:41;;;;;;;0.80;0.80;;;;;;;;;;4959889;28;20279;-54
2022/09/10 14:24:26;;;;;;;1.40;0.80;;;;;;;;;;4964617;28;20713;-51
2022/09/10 14:27:16;;;;;;;2.33;1.10;;;;;;;;;;4986696;28;20308;-50
2022/09/10 14:29:42;;;;;;;2.00;1.00;;;;;;;;;;4985598;28;20213;-49
2022/09/10 14:32:36;;;;;;;1.15;0.82;;;;;;;;;;4971316;28;20632;-53
2022/09/10 14:35:37;;;;;;;2.75;1.20;;;;;;;;;;4968907;28;20207;-53
2022/09/10 14:38:19;;;;;;;1.67;1.00;;;;;;;;;;4984504;28;20231;-51
2022/09/10 14:40:46;;;;;;;1.50;0.98;;;;;;;;;;4971688;28;20724;-50
2022/09/10 14:43:22;;;;;;;1.40;0.90;;;;;;;;;;4988865;28;20307;-56
2022/09/10 14:45:48;;;;;;;2.65;1.00;;;;;;;;;;4970440;28;20201;-54
2022/09/10 14:48:35;;;;;;;0.90;0.80;;;;;;;;;;4990029;28;20303;-54
2022/09/10 14:51:23;;;;;;;1.38;0.90;;;;;;;;;;4988418;28;20228;-49
2022/09/10 14:53:51;;;;;;;1.30;1.00;;;;;;;;;;4983540;28;20296;-56
2022/09/10 14:56:36;;;;;;;1.23;0.98;;;;;;;;;;4988647;28;20224;-57
2022/09/10 14:59:12;;;;;;;1.83;1.05;;;;;;;;;;4967819;28;20279;-53
2022/09/10 15:01:43;;;;;;;1.58;0.90;;;;;;;;;;4978571;28;20355;-55
2022/09/10 15:04:25;;;;;;;1.00;0.80;;;;;;;;;;4985991;28;20205;-50
2022/09/10 15:06:52;;;;;;;1.88;0.90;;;;;;;;;;4986934;28;20299;-53
2022/09/10 15:09:19;;;;;;;2.03;0.90;;;;;;;;;;4990366;28;20310;-51
2022/09/10 15:11:53;;;;;;;1.08;0.88;;;;;;;;;;4988684;28;20728;-53
2022/09/10 15:14:20;;;;;;;2.60;0.88;;;;;;;;;;4990442;28;20667;-53
2022/09/10 15:16:49;;;;;;;1.40;0.90;;;;;;;;;;4985836;28;20300;-49
2022/09/10 15:19:15;;;;;;;1.45;1.15;;;;;;;;;;4989309;28;20285;-49